New Burnside, Illinois
Current Conditions -  °F | °C
As of 3:48 PM on Friday 28 Nov 2014 (Local Time) from KMWA Reporting Station
Scattered Clouds Scattered Clouds  
Wind Chill: 40°   Ceiling: Unl
Heat Index: 46°   Visibility: 20mi
Dew Point: 32°   Wind: 16mph
Humidity: 57%   Direction: 190°S
Pressure: 30.07"   Gusts: 28mph
Location:  37.58°N, 88.77°W
Report Text: KMWA 282148Z 19014G24KT 20SM SCT200 08/00 A3007
Loading
Personal Weather Stations






























Interactive Weather Map New forecast layout! Learn more

10-Day Weather Forecast

Advertisements
Track Severe Weather on mobile